Terminal Aerodrome Forecast
Issued by NWS Raleigh/Durham, NC

Home | Current Version | Previous Version | Text Only | Print | Product List | Glossary On
Versions: 1 2 3 4 5 6 7 8 9 10 11 12 13 14 15 16 17 18 19 20 21 22 23 24 25 26 27 28 29 30 31 32 33 34 35 36 37 38 39 40 41 42 43 44 45 46 47 48 49 50
000
FTUS42 KRAH 172051 AAB
TAFRDU
TAF AMD
KRDU 172051Z 1721/1818 19007KT P6SM VCSH FEW040 BKN250
      TEMPO 1721/1724 VRB10G20KT 3SM -SHRA BKN025 OVC040
     FM180600 19004KT 4SM BR BKN012
      TEMPO 1808/1812 2SM BR BKN007
     FM181400 14006KT P6SM BKN035 BKN080=

USA.gov is the U.S. government's official web portal to all federal, state and local government web resources and services.